^^
Grace C. Lehan Memorial Weather Station Historical Data
Daily Summary for May 8, 2021 Units:  Metric    English   Both
Daily Weekly Monthly Yearly
  High: Low: Average:
Temperature: 17.8 °C 1.8 °C 9.2 °C
Dew Point: 7.5 °C -0.2 °C 3.9 °C
Humidity: 89.4% 43% 72%
Wind Speed: 4.2km/h 0km/h 0.5km/h
Wind Gust: 17.7km/h - -
Wind- - East
Pressure: 1020.5 hPa 1017.2 hPa -
Precipitation: 0 mm    
 
 
Tabular Data for May 8, 2021
Time Temperature Dew Point Pressure Wind Wind Speed Wind Gust Humidity Rainfall Rate (Hourly) solar
00:04 3.9 °C 1.3 °C 1018.5 hPa Calm     82.9% 0 mm 0 W/m2
00:09 3.8 °C 1.2 °C 1018.5 hPa Calm     83% 0 mm 0 W/m2
00:14 3.7 °C 1.2 °C 1018.5 hPa Calm     83.7% 0 mm 0 W/m2
00:19 3.7 °C 1.2 °C 1018.2 hPa Calm     84% 0 mm 0 W/m2
00:24 3.6 °C 1.3 °C 1018.2 hPa Calm     84.8% 0 mm 0 W/m2
00:29 3.6 °C 1.3 °C 1018.2 hPa Calm     85% 0 mm 0 W/m2
00:34 3.6 °C 1.3 °C 1018.2 hPa Calm     85% 0 mm 0 W/m2
00:39 3.5 °C 1.2 °C 1017.8 hPa Calm     85% 0 mm 0 W/m2
00:44 3.4 °C 1.2 °C 1017.8 hPa Calm     85% 0 mm 0 W/m2
00:49 3.4 °C 1.2 °C 1018.2 hPa Calm     85% 0 mm 0 W/m2
00:54 3.4 °C 1.3 °C 1018.2 hPa Calm     85.8% 0 mm 0 W/m2
00:59 3.4 °C 1.3 °C 1018.2 hPa Calm     86% 0 mm 0 W/m2
01:04 3.3 °C 1.1 °C 1018.2 hPa Calm     85% 0 mm 0 W/m2
01:09 3.3 °C 1.1 °C 1018.2 hPa Calm     85% 0 mm 0 W/m2
01:14 3.3 °C 1.1 °C 1018.2 hPa Calm     85% 0 mm 0 W/m2
01:19 3.3 °C 1.1 °C 1018.2 hPa Calm     85% 0 mm 0 W/m2
01:24 3.3 °C 1.1 °C 1018.2 hPa Calm     85% 0 mm 0 W/m2
01:29 3.3 °C 1.1 °C 1018.2 hPa ENE 0.2 km/h 1.6 km/h 85% 0 mm 0 W/m2
01:34 3.3 °C 1 °C 1018.2 hPa ENE 0.5 km/h 4.8 km/h 85% 0 mm 0 W/m2
01:39 3.2 °C 0.9 °C 1017.8 hPa ENE 0.8 km/h 4.8 km/h 85% 0 mm 0 W/m2
01:44 3.2 °C 0.9 °C 1018.2 hPa Calm   4.8 km/h 85% 0 mm 0 W/m2
01:49 3.2 °C 0.9 °C 1017.8 hPa ENE 0.8 km/h 4.8 km/h 85% 0 mm 0 W/m2
01:54 3.3 °C 1 °C 1017.5 hPa ENE 0.3 km/h 4.8 km/h 85% 0 mm 0 W/m2
01:59 3.3 °C 1.1 °C 1017.5 hPa ENE 0.3 km/h 4.8 km/h 85% 0 mm 0 W/m2
02:04 3.4 °C 0.9 °C 1017.5 hPa NE 0.2 km/h 4.8 km/h 84.2% 0 mm 0 W/m2
02:09 3.4 °C 1 °C 1017.5 hPa Calm   3.2 km/h 84% 0 mm 0 W/m2
02:14 3.4 °C 0.9 °C 1017.5 hPa Calm   3.2 km/h 83.6% 0 mm 0 W/m2
02:19 3.5 °C 0.9 °C 1017.5 hPa Calm   3.2 km/h 83% 0 mm 0 W/m2
02:24 3.6 °C 0.9 °C 1017.5 hPa Calm   3.2 km/h 83% 0 mm 0 W/m2
02:29 3.6 °C 0.9 °C 1017.5 hPa Calm   3.2 km/h 83% 0 mm 0 W/m2
02:34 3.5 °C 0.9 °C 1017.2 hPa Calm   3.2 km/h 83% 0 mm 0 W/m2
02:39 3.5 °C 0.9 °C 1017.2 hPa Calm     83% 0 mm 0 W/m2
02:44 3.5 °C 0.9 °C 1017.5 hPa Calm     82.7% 0 mm 0 W/m2
02:49 3.6 °C 0.8 °C 1017.5 hPa Calm     82% 0 mm 0 W/m2
02:53 3.6 °C 0.8 °C 1017.5 hPa Calm     82% 0 mm 0 W/m2
02:59 3.5 °C 0.7 °C 1017.5 hPa Calm     82% 0 mm 0 W/m2
03:04 3.5 °C 0.8 °C 1017.5 hPa Calm     82.5% 0 mm 0 W/m2
03:09 3.5 °C 0.7 °C 1017.5 hPa Calm     82.2% 0 mm 0 W/m2
03:14 3.5 °C 0.9 °C 1017.5 hPa Calm     83% 0 mm 0 W/m2
03:19 3.5 °C 0.9 °C 1017.5 hPa NE 0.2 km/h 1.6 km/h 83% 0 mm 0 W/m2
03:24 3.5 °C 0.8 °C 1017.5 hPa Calm   1.6 km/h 82.6% 0 mm 0 W/m2
03:29 3.5 °C 0.7 °C 1017.5 hPa Calm   1.6 km/h 82% 0 mm 0 W/m2
03:34 3.5 °C 0.7 °C 1017.5 hPa Calm   1.6 km/h 82% 0 mm 0 W/m2
03:39 3.5 °C 0.7 °C 1017.5 hPa Calm     82% 0 mm 0 W/m2
03:44 3.5 °C 0.7 °C 1017.5 hPa Calm     82% 0 mm 0 W/m2
03:49 3.4 °C 0.7 °C 1017.8 hPa Calm     82% 0 mm 0 W/m2
03:54 3.4 °C 0.6 °C 1017.8 hPa NE 0.2 km/h 3.2 km/h 82% 0 mm 0 W/m2
03:59 3.4 °C 0.6 °C 1017.8 hPa NE 0.2 km/h 3.2 km/h 82% 0 mm 0 W/m2
04:09 3.4 °C 0.6 °C 1017.8 hPa Calm     82% 0 mm 0 W/m2
04:14 3.3 °C 0.6 °C 1018.2 hPa Calm     81.9% 0 mm 0 W/m2
04:19 3.3 °C 0.5 °C 1018.2 hPa Calm     82% 0 mm 0 W/m2
04:24 3.2 °C 0.4 °C 1018.2 hPa Calm   1.6 km/h 82% 0 mm 0 W/m2
04:29 3.2 °C 0.4 °C 1018.2 hPa Calm   1.6 km/h 82% 0 mm 0 W/m2
04:34 3.1 °C 0.3 °C 1018.2 hPa Calm   1.6 km/h 82% 0 mm 0 W/m2
04:39 3.1 °C 0.4 °C 1018.2 hPa Calm     82.9% 0 mm 0 W/m2
04:44 2.9 °C 0.3 °C 1018.5 hPa Calm     83% 0 mm 0 W/m2
04:49 2.9 °C 0.3 °C 1018.5 hPa Calm     83% 0 mm 0 W/m2
04:54 2.8 °C 0.2 °C 1018.5 hPa Calm   1.6 km/h 83% 0 mm 0 W/m2
04:59 2.8 °C 0.3 °C 1018.5 hPa NE 0.2 km/h 3.2 km/h 83.6% 0 mm 0 W/m2
05:04 2.7 °C 0.2 °C 1018.5 hPa Calm   3.2 km/h 84% 0 mm 0 W/m2
05:09 2.5 °C 0.1 °C 1018.5 hPa Calm   1.6 km/h 84.1% 0 mm 0 W/m2
05:14 2.4 °C 0.2 °C 1018.5 hPa Calm   1.6 km/h 85% 0 mm 0 W/m2
05:19 2.3 °C 0.1 °C 1018.5 hPa NE 0.2 km/h 3.2 km/h 85% 0 mm 0 W/m2
05:24 2.3 °C 0 °C 1018.5 hPa Calm   3.2 km/h 85% 0 mm 0 W/m2
05:29 2.2 °C 0.1 °C 1018.5 hPa NE 0.2 km/h 3.2 km/h 85.7% 0 mm 0 W/m2
05:34 2.2 °C 0.1 °C 1018.8 hPa Calm   3.2 km/h 86% 0 mm 0 W/m2
05:39 2.1 °C 0 °C 1018.8 hPa Calm   3.2 km/h 86% 0 mm 0 W/m2
05:44 2.1 °C -0.1 °C 1018.8 hPa Calm   3.2 km/h 86% 0 mm 0 W/m2
05:49 2.1 °C -0.1 °C 1018.8 hPa Calm   3.2 km/h 86% 0 mm 0 W/m2
05:54 2.1 °C -0.1 °C 1018.8 hPa Calm   3.2 km/h 86% 0 mm 0 W/m2
05:59 2.1 °C -0.1 °C 1018.8 hPa Calm   3.2 km/h 86% 0 mm 0 W/m2
06:04 2.1 °C 0 °C 1018.8 hPa Calm   3.2 km/h 86% 0 mm 0 W/m2
06:09 2.1 °C -0.1 °C 1018.8 hPa Calm     86% 0 mm 0 W/m2
06:14 2.1 °C -0.1 °C 1018.8 hPa Calm     86% 0 mm 0 W/m2
06:19 2.1 °C -0.1 °C 1019.2 hPa Calm     86% 0 mm 0 W/m2
06:24 2 °C -0.1 °C 1019.2 hPa Calm     86% 0 mm 0 W/m2
06:29 2 °C -0.1 °C 1019.5 hPa Calm     86% 0 mm 0 W/m2
06:34 1.9 °C -0.2 °C 1019.5 hPa Calm     86% 0 mm 0 W/m2
06:39 1.9 °C -0.2 °C 1019.5 hPa Calm     86% 0 mm 0 W/m2
06:44 1.9 °C -0.2 °C 1019.5 hPa Calm     86.3% 0 mm 5 W/m2
06:49 1.8 °C -0.1 °C 1019.5 hPa Calm     87% 0 mm 9 W/m2
06:54 1.8 °C 0.2 °C 1019.5 hPa Calm     89.4% 0 mm 21 W/m2
06:59 1.8 °C -0.2 °C 1019.5 hPa Calm     87% 0 mm 32 W/m2
07:04 1.8 °C -0.1 °C 1019.5 hPa Calm     87.2% 0 mm 33 W/m2
07:09 2 °C 0.2 °C 1019.9 hPa Calm     88% 0 mm 30 W/m2
07:14 2.2 °C 0.4 °C 1019.9 hPa Calm     88% 0 mm 33 W/m2
07:19 2.3 °C 0.5 °C 1020.2 hPa Calm     88% 0 mm 26 W/m2
07:24 2.4 °C 0.5 °C 1020.2 hPa Calm     87.4% 0 mm 32 W/m2
07:29 2.4 °C 0.6 °C 1020.2 hPa Calm     87% 0 mm 35 W/m2
07:34 2.6 °C 0.6 °C 1020.2 hPa Calm     87% 0 mm 53 W/m2
07:39 2.7 °C 0.7 °C 1020.2 hPa Calm     86.8% 0 mm 56 W/m2
07:44 2.8 °C 0.7 °C 1020.2 hPa Calm     86% 0 mm 51 W/m2
07:49 3.1 °C 0.9 °C 1020.2 hPa Calm   1.6 km/h 86% 0 mm 60 W/m2
07:54 3.3 °C 1 °C 1020.2 hPa NE 0.2 km/h 3.2 km/h 84.6% 0 mm 76 W/m2
07:59 3.7 °C 1.2 °C 1020.2 hPa Calm   3.2 km/h 83.4% 0 mm 193 W/m2
08:09 4.8 °C 1.6 °C 1020.2 hPa NE 0.8 km/h 6.4 km/h 80.2% 0 mm 236 W/m2
08:14 5.3 °C 1.9 °C 1020.2 hPa NE 0.6 km/h 6.4 km/h 78.6% 0 mm 274 W/m2
08:19 6 °C 2.1 °C 1020.5 hPa NE 0.6 km/h 6.4 km/h 76.1% 0 mm 290 W/m2
08:24 6.7 °C 2.2 °C 1020.2 hPa NE 0.3 km/h 6.4 km/h 72.7% 0 mm 304 W/m2
08:29 7.3 °C 2.3 °C 1020.2 hPa Calm   6.4 km/h 70.4% 0 mm 318 W/m2
08:34 7.9 °C 2.6 °C 1020.2 hPa NE 0.3 km/h 6.4 km/h 68.7% 0 mm 330 W/m2
08:39 8.5 °C 2.7 °C 1020.2 hPa NE 0.5 km/h 4.8 km/h 66.8% 0 mm 339 W/m2
08:44 8.9 °C 2.8 °C 1020.2 hPa NNE 0.6 km/h 6.4 km/h 65.3% 0 mm 352 W/m2
08:49 9.3 °C 2.8 °C 1020.2 hPa NNE 0.3 km/h 6.4 km/h 63.6% 0 mm 360 W/m2
08:54 9.6 °C 2.8 °C 1020.2 hPa NNE 0.8 km/h 6.4 km/h 62.5% 0 mm 371 W/m2
08:59 9.9 °C 2.8 °C 1019.9 hPa Calm   6.4 km/h 61.4% 0 mm 380 W/m2
09:04 10.2 °C 2.7 °C 1020.2 hPa NNE 0.6 km/h 6.4 km/h 59.9% 0 mm 394 W/m2
09:09 10.4 °C 2.8 °C 1020.2 hPa NNE 1.4 km/h 4.8 km/h 59.4% 0 mm 399 W/m2
09:14 10.6 °C 2.9 °C 1020.2 hPa NNE 1.6 km/h 8 km/h 59% 0 mm 374 W/m2
09:19 10.8 °C 2.9 °C 1020.2 hPa NNE 1.9 km/h 8 km/h 58.5% 0 mm 396 W/m2
09:24 10.7 °C 2.9 °C 1020.2 hPa NE 1.4 km/h 8 km/h 58.5% 0 mm 371 W/m2
09:29 10.7 °C 2.8 °C 1020.2 hPa NE 2.9 km/h 9.7 km/h 58% 0 mm 396 W/m2
09:34 10.7 °C 2.9 °C 1020.2 hPa NE 1 km/h 9.7 km/h 58.8% 0 mm 292 W/m2
09:39 10.7 °C 3 °C 1020.2 hPa NE 0.8 km/h 6.4 km/h 59% 0 mm 283 W/m2
09:44 10.7 °C 2.9 °C 1020.2 hPa NNE 0.6 km/h 6.4 km/h 58.7% 0 mm 220 W/m2
09:49 10.7 °C 3.1 °C 1020.5 hPa NNE 0.5 km/h 6.4 km/h 59% 0 mm 214 W/m2
09:54 10.8 °C 3.3 °C 1020.5 hPa NNW 1.6 km/h 11.3 km/h 59.6% 0 mm 341 W/m2
09:59 11.1 °C 3.4 °C 1020.2 hPa NNW 2.4 km/h 11.3 km/h 59.2% 0 mm 341 W/m2
10:04 11.3 °C 3.4 °C 1020.2 hPa North 1 km/h 11.3 km/h 58.2% 0 mm 211 W/m2
10:09 11.7 °C 3.7 °C 1020.2 hPa ENE 2.3 km/h 11.3 km/h 58.2% 0 mm 406 W/m2
10:14 12.1 °C 3.8 °C 1020.5 hPa NNE 1.8 km/h 16.1 km/h 56.8% 0 mm 517 W/m2
10:19 12.6 °C 3.9 °C 1020.5 hPa North 2.7 km/h 16.1 km/h 55.3% 0 mm 524 W/m2
10:24 13.2 °C 4.2 °C 1020.5 hPa NNE 1.1 km/h 16.1 km/h 54.6% 0 mm 531 W/m2
10:29 13.7 °C 3.8 °C 1020.5 hPa NE 2.3 km/h 16.1 km/h 51.4% 0 mm 536 W/m2
10:33 13.9 °C 3.7 °C 1020.5 hPa ENE 3.7 km/h 16.1 km/h 50% 0 mm 536 W/m2
10:39 14.3 °C 4 °C 1020.2 hPa NE 0.3 km/h 8 km/h 49.7% 0 mm 515 W/m2
10:44 14.7 °C 3.8 °C 1020.5 hPa NNE 2.4 km/h 12.9 km/h 48.2% 0 mm 550 W/m2
10:49 14.7 °C 3.2 °C 1020.5 hPa NE 2.3 km/h 12.9 km/h 45.9% 0 mm 434 W/m2
10:54 14.5 °C 3 °C 1020.2 hPa NE 2.6 km/h 12.9 km/h 46% 0 mm 380 W/m2
10:59 14.4 °C 3.3 °C 1020.2 hPa ENE 1.8 km/h 12.9 km/h 47.1% 0 mm 246 W/m2
11:04 14.5 °C 3.2 °C 1019.9 hPa NE 2.4 km/h 12.9 km/h 46.5% 0 mm 547 W/m2
11:09 14.6 °C 3.3 °C 1019.9 hPa North 1 km/h 9.7 km/h 46.4% 0 mm 570 W/m2
11:14 14.9 °C 3.8 °C 1019.9 hPa North 1.6 km/h 9.7 km/h 47.4% 0 mm 570 W/m2
11:19 14.9 °C 3.4 °C 1019.5 hPa NNW 0.8 km/h 9.7 km/h 46% 0 mm 262 W/m2
11:24 15 °C 3.1 °C 1019.5 hPa NNW 1.9 km/h 9.7 km/h 44.6% 0 mm 294 W/m2
11:29 15.1 °C 3.2 °C 1019.5 hPa North 1.3 km/h 9.7 km/h 44.9% 0 mm 287 W/m2
11:34 15.2 °C 3.2 °C 1019.5 hPa NE 1.1 km/h 9.7 km/h 44.3% 0 mm 571 W/m2
11:39 15.4 °C 3.2 °C 1019.2 hPa NNW 2.4 km/h 9.7 km/h 44% 0 mm 559 W/m2
11:44 15.6 °C 3.2 °C 1019.2 hPa NW 0.6 km/h 9.7 km/h 43.5% 0 mm 503 W/m2
11:49 15.7 °C 3.5 °C 1019.2 hPa NNW 0.6 km/h 9.7 km/h 43.8% 0 mm 499 W/m2
11:54 15.9 °C 3.8 °C 1019.2 hPa NW 1.9 km/h 9.7 km/h 44.3% 0 mm 350 W/m2
11:59 16.1 °C 3.7 °C 1019.2 hPa North 1.4 km/h 9.7 km/h 43.6% 0 mm 267 W/m2
12:00 16.2 °C 3.6 °C 1019.2 hPa NNW 1.1 km/h 9.7 km/h 43% 0 mm 158 W/m2
12:09 16.3 °C 4.3 °C 1019.2 hPa NNW 1.8 km/h 8 km/h 44.9% 0 mm 130 W/m2
12:14 16.4 °C 4.5 °C 1019.2 hPa North 1.9 km/h 11.3 km/h 45.3% 0 mm 459 W/m2
12:19 16.4 °C 4.3 °C 1019.2 hPa ENE 2.4 km/h 14.5 km/h 44.6% 0 mm 550 W/m2
12:24 16.5 °C 4.8 °C 1019.2 hPa NNE 3.5 km/h 16.1 km/h 45.8% 0 mm 322 W/m2
12:29 16.6 °C 5.1 °C 1018.8 hPa NE 2.7 km/h 16.1 km/h 46.4% 0 mm 378 W/m2
12:34 16.7 °C 5.3 °C 1018.8 hPa NNE 2.9 km/h 16.1 km/h 47.1% 0 mm 501 W/m2
12:39 16.8 °C 5.3 °C 1018.8 hPa NE 4.2 km/h 17.7 km/h 46.7% 0 mm 374 W/m2
12:44 16.8 °C 5.4 °C 1018.5 hPa East 0.5 km/h 17.7 km/h 47.1% 0 mm 496 W/m2
12:49 16.9 °C 5.9 °C 1018.8 hPa NNW 3.5 km/h 17.7 km/h 48.3% 0 mm 441 W/m2
12:54 17 °C 6 °C 1018.5 hPa North 1.4 km/h 17.7 km/h 48.2% 0 mm 156 W/m2
12:59 17.1 °C 6.2 °C 1018.5 hPa NE 3.4 km/h 17.7 km/h 48.5% 0 mm 290 W/m2
13:04 17.2 °C 6.2 °C 1018.5 hPa NE 3.5 km/h 17.7 km/h 48.3% 0 mm 306 W/m2
13:09 17.2 °C 6.4 °C 1018.5 hPa NNE 1 km/h 11.3 km/h 49.2% 0 mm 332 W/m2
13:14 17.3 °C 6.5 °C 1018.5 hPa NNE 2.7 km/h 11.3 km/h 49.1% 0 mm 246 W/m2
13:19 17.4 °C 6.6 °C 1018.5 hPa ENE 1.3 km/h 11.3 km/h 49% 0 mm 172 W/m2
13:24 17.5 °C 6.8 °C 1018.5 hPa NE 1 km/h 11.3 km/h 49.2% 0 mm 352 W/m2
13:29 17.7 °C 6.8 °C 1018.5 hPa ENE 2.3 km/h 11.3 km/h 49% 0 mm 352 W/m2
13:34 17.6 °C 6.6 °C 1018.5 hPa ENE 2.7 km/h 11.3 km/h 48.3% 0 mm 462 W/m2
13:39 17.6 °C 6.9 °C 1018.2 hPa NW 2.3 km/h 9.7 km/h 49.6% 0 mm 462 W/m2
13:44 17.6 °C 7 °C 1018.2 hPa NW 1.4 km/h 11.3 km/h 50% 0 mm 156 W/m2
13:49 17.7 °C 7.1 °C 1018.2 hPa NNE 0.8 km/h 11.3 km/h 49.8% 0 mm 432 W/m2
13:54 17.8 °C 6.8 °C 1018.2 hPa NE 3.4 km/h 11.3 km/h 48.5% 0 mm 432 W/m2
13:59 17.8 °C 6.9 °C 1018.2 hPa NE 2.6 km/h 11.3 km/h 49% 0 mm 295 W/m2
14:04 17.7 °C 6.8 °C 1017.8 hPa ENE 2.1 km/h 11.3 km/h 49% 0 mm 295 W/m2
14:09 17.6 °C 6.9 °C 1017.8 hPa NE 3.7 km/h 11.3 km/h 49.5% 0 mm 67 W/m2
14:14 17.6 °C 7.1 °C 1018.2 hPa ENE 0.2 km/h 11.3 km/h 50.2% 0 mm 156 W/m2
14:19 17.6 °C 7.2 °C 1017.8 hPa North 1.1 km/h 11.3 km/h 50.5% 0 mm 220 W/m2
14:24 17.6 °C 7.1 °C 1017.8 hPa NE 1.4 km/h 11.3 km/h 50% 0 mm 216 W/m2
14:29 17.5 °C 7.1 °C 1017.8 hPa East 1.8 km/h 11.3 km/h 50.3% 0 mm 274 W/m2
14:34 17.4 °C 7 °C 1017.8 hPa ENE 2.4 km/h 11.3 km/h 50.5% 0 mm 223 W/m2
14:39 17.3 °C 7.1 °C 1017.8 hPa ENE 1.1 km/h 9.7 km/h 51% 0 mm 32 W/m2
14:44 17.2 °C 6.9 °C 1017.8 hPa ENE 1.8 km/h 9.7 km/h 51% 0 mm 30 W/m2
14:49 17.1 °C 7.2 °C 1017.8 hPa NE 0.2 km/h 9.7 km/h 51.9% 0 mm 28 W/m2
14:54 17.1 °C 7.3 °C 1017.8 hPa NE 0.6 km/h 9.7 km/h 52.6% 0 mm 28 W/m2
14:59 17.1 °C 7.2 °C 1017.8 hPa NNE 0.5 km/h 9.7 km/h 52.2% 0 mm 26 W/m2
15:04 17 °C 7.2 °C 1017.8 hPa Calm   9.7 km/h 52.2% 0 mm 26 W/m2
15:09 16.9 °C 7.3 °C 1017.8 hPa NE 0.6 km/h 4.8 km/h 53% 0 mm 26 W/m2
15:14 16.9 °C 7.1 °C 1017.8 hPa NE 1.1 km/h 6.4 km/h 52.3% 0 mm 25 W/m2
15:19 16.9 °C 7.3 °C 1017.8 hPa Calm   6.4 km/h 53% 0 mm 23 W/m2
15:24 16.8 °C 7.2 °C 1017.8 hPa NE 0.2 km/h 6.4 km/h 53% 0 mm 23 W/m2
15:29 16.8 °C 7.2 °C 1017.8 hPa NE 0.5 km/h 6.4 km/h 53% 0 mm 21 W/m2
15:34 16.8 °C 7.1 °C 1017.8 hPa NE 0.2 km/h 6.4 km/h 53% 0 mm 21 W/m2
15:39 16.7 °C 7.2 °C 1017.8 hPa Calm   1.6 km/h 53.4% 0 mm 19 W/m2
15:44 16.7 °C 7.3 °C 1017.8 hPa Calm   1.6 km/h 54% 0 mm 19 W/m2
15:49 16.6 °C 7.2 °C 1017.8 hPa NE 0.2 km/h 3.2 km/h 54% 0 mm 18 W/m2
15:54 16.5 °C 7.2 °C 1017.8 hPa Calm   3.2 km/h 54% 0 mm 18 W/m2
15:59 16.5 °C 7.3 °C 1017.8 hPa Calm   3.2 km/h 54.5% 0 mm 16 W/m2
16:00 16.4 °C 7.1 °C 1017.8 hPa Calm   3.2 km/h 54% 0 mm 14 W/m2
16:09 16.3 °C 7.2 °C 1017.8 hPa Calm     55% 0 mm 12 W/m2
16:14 16.2 °C 7.3 °C 1017.8 hPa Calm     55.7% 0 mm 12 W/m2
16:19 16.1 °C 7.3 °C 1017.8 hPa Calm     55.8% 0 mm 11 W/m2
16:24 15.9 °C 7.2 °C 1017.8 hPa Calm     56% 0 mm 9 W/m2
16:29 15.8 °C 7.3 °C 1017.8 hPa Calm     57% 0 mm 7 W/m2
16:34 15.6 °C 7.2 °C 1017.8 hPa Calm     57% 0 mm 5 W/m2
16:39 15.5 °C 7.2 °C 1017.8 hPa Calm     57.7% 0 mm 0 W/m2
16:44 15.3 °C 7.3 °C 1017.8 hPa Calm     58.7% 0 mm 0 W/m2
16:49 15.2 °C 7.2 °C 1017.8 hPa Calm     58.9% 0 mm 0 W/m2
16:54 15.1 °C 7.4 °C 1018.2 hPa Calm     60.1% 0 mm 0 W/m2
16:59 14.9 °C 7.5 °C 1018.2 hPa Calm     61.1% 0 mm 0 W/m2
17:04 14.7 °C 7.4 °C 1018.2 hPa Calm     61.4% 0 mm 0 W/m2
17:09 14.5 °C 7.3 °C 1018.2 hPa Calm     62% 0 mm 0 W/m2
17:14 14.3 °C 7.2 °C 1018.2 hPa Calm     62.4% 0 mm 0 W/m2
17:19 14.1 °C 7.2 °C 1018.2 hPa Calm     63% 0 mm 0 W/m2
17:24 13.9 °C 7.2 °C 1018.5 hPa Calm     63.7% 0 mm 0 W/m2
17:29 13.8 °C 7.2 °C 1018.5 hPa Calm     64.5% 0 mm 0 W/m2
17:34 13.6 °C 7.3 °C 1018.5 hPa Calm     65.6% 0 mm 0 W/m2
17:39 13.4 °C 7.2 °C 1018.8 hPa Calm     66.4% 0 mm 0 W/m2
17:44 13.1 °C 7.2 °C 1018.8 hPa Calm     67.4% 0 mm 0 W/m2
17:49 12.9 °C 7.1 °C 1018.8 hPa Calm     68% 0 mm 0 W/m2
17:54 12.6 °C 7.1 °C 1018.8 hPa Calm     68.9% 0 mm 0 W/m2
17:59 12.4 °C 6.9 °C 1018.8 hPa Calm     69.2% 0 mm 0 W/m2
18:04 12.2 °C 6.8 °C 1018.8 hPa Calm     70% 0 mm 0 W/m2
18:09 11.9 °C 6.8 °C 1018.8 hPa Calm     71% 0 mm 0 W/m2
18:14 11.8 °C 6.8 °C 1018.8 hPa Calm     71.8% 0 mm 0 W/m2
18:19 11.6 °C 6.7 °C 1018.8 hPa Calm     72.2% 0 mm 0 W/m2
18:24 11.3 °C 6.7 °C 1018.8 hPa Calm     73% 0 mm 0 W/m2
18:29 11.2 °C 6.7 °C 1018.8 hPa Calm     73.9% 0 mm 0 W/m2
18:34 11 °C 6.6 °C 1018.8 hPa Calm     74.1% 0 mm 0 W/m2
18:39 10.9 °C 6.6 °C 1018.8 hPa Calm     75% 0 mm 0 W/m2
18:44 10.8 °C 6.6 °C 1018.8 hPa Calm     75.1% 0 mm 0 W/m2
18:49 10.7 °C 6.6 °C 1018.8 hPa Calm     76% 0 mm 0 W/m2
18:54 10.6 °C 6.5 °C 1018.8 hPa Calm     76% 0 mm 0 W/m2
18:59 10.4 °C 6.4 °C 1018.8 hPa Calm     76.2% 0 mm 0 W/m2
19:04 10.3 °C 6.5 °C 1018.8 hPa Calm     77% 0 mm 0 W/m2
19:09 10.2 °C 6.4 °C 1018.8 hPa Calm     77% 0 mm 0 W/m2
19:14 10.1 °C 6.4 °C 1018.8 hPa Calm     77.6% 0 mm 0 W/m2
19:19 10.1 °C 6.4 °C 1018.8 hPa Calm     78% 0 mm 0 W/m2
19:24 9.9 °C 6.4 °C 1019.2 hPa Calm     78.6% 0 mm 0 W/m2
19:29 9.8 °C 6.3 °C 1019.2 hPa Calm     79% 0 mm 0 W/m2
19:34 9.7 °C 6.2 °C 1019.2 hPa Calm     79% 0 mm 0 W/m2
19:39 9.6 °C 6.3 °C 1018.8 hPa Calm     80% 0 mm 0 W/m2
19:44 9.5 °C 6.2 °C 1018.8 hPa Calm     80% 0 mm 0 W/m2
19:49 9.4 °C 6.2 °C 1018.8 hPa Calm     80% 0 mm 0 W/m2
19:54 9.4 °C 6.1 °C 1018.8 hPa Calm     80.1% 0 mm 0 W/m2
19:59 9.3 °C 6.2 °C 1018.8 hPa Calm     80.8% 0 mm 0 W/m2
20:09 9.2 °C 6.1 °C 1018.8 hPa Calm     81% 0 mm 0 W/m2
20:14 9.1 °C 6 °C 1018.8 hPa Calm     81.2% 0 mm 0 W/m2
20:19 9 °C 6.1 °C 1018.8 hPa Calm     82% 0 mm 0 W/m2
20:24 8.9 °C 6 °C 1019.2 hPa Calm     82% 0 mm 0 W/m2
20:29 8.8 °C 6.1 °C 1018.8 hPa Calm     82.8% 0 mm 0 W/m2
20:34 8.8 °C 6.1 °C 1018.8 hPa Calm     83.3% 0 mm 0 W/m2
20:39 8.7 °C 6 °C 1018.8 hPa Calm     83% 0 mm 0 W/m2
20:44 8.7 °C 5.9 °C 1018.8 hPa Calm     83% 0 mm 0 W/m2
20:49 8.6 °C 5.9 °C 1018.8 hPa Calm     83% 0 mm 0 W/m2
20:54 8.6 °C 5.9 °C 1018.8 hPa Calm     83.7% 0 mm 0 W/m2
20:59 8.5 °C 5.9 °C 1018.8 hPa Calm     84% 0 mm 0 W/m2
21:04 8.4 °C 5.9 °C 1019.2 hPa Calm     84% 0 mm 0 W/m2
21:09 8.4 °C 5.9 °C 1019.2 hPa Calm     84.3% 0 mm 0 W/m2
21:14 8.3 °C 5.9 °C 1018.8 hPa Calm     85% 0 mm 0 W/m2
21:19 8.3 °C 5.9 °C 1018.8 hPa Calm     85% 0 mm 0 W/m2
21:24 8.3 °C 6 °C 1018.8 hPa Calm     85.1% 0 mm 0 W/m2
21:29 8.3 °C 6.1 °C 1018.8 hPa Calm     85.7% 0 mm 0 W/m2
21:34 8.4 °C 6.1 °C 1018.8 hPa Calm     85.2% 0 mm 0 W/m2
21:39 8.4 °C 6 °C 1018.8 hPa Calm     85% 0 mm 0 W/m2
21:44 8.3 °C 5.9 °C 1018.8 hPa Calm     85% 0 mm 0 W/m2
21:49 8.2 °C 5.9 °C 1018.8 hPa Calm     85% 0 mm 0 W/m2
21:54 8.2 °C 5.8 °C 1018.8 hPa Calm     85% 0 mm 0 W/m2
21:59 8.1 °C 5.7 °C 1018.8 hPa Calm     85% 0 mm 0 W/m2
22:04 8 °C 5.8 °C 1018.8 hPa Calm     85.8% 0 mm 0 W/m2
22:09 8.1 °C 5.9 °C 1019.2 hPa Calm     86% 0 mm 0 W/m2
22:14 8.2 °C 6 °C 1019.2 hPa Calm     86% 0 mm 0 W/m2
22:19 8.1 °C 5.8 °C 1019.2 hPa Calm     85.1% 0 mm 0 W/m2
22:24 8 °C 5.6 °C 1019.2 hPa Calm     85% 0 mm 0 W/m2
22:29 7.9 °C 5.5 °C 1019.2 hPa Calm     85% 0 mm 0 W/m2
22:34 7.8 °C 5.5 °C 1019.2 hPa Calm     85.2% 0 mm 0 W/m2
22:39 7.7 °C 5.6 °C 1018.8 hPa Calm     86% 0 mm 0 W/m2
22:44 7.6 °C 5.4 °C 1018.8 hPa Calm     86% 0 mm 0 W/m2
22:49 7.5 °C 5.3 °C 1018.8 hPa Calm     86% 0 mm 0 W/m2
22:54 7.4 °C 5.2 °C 1018.8 hPa Calm     86% 0 mm 0 W/m2
22:59 7.3 °C 5.1 °C 1018.8 hPa Calm     86% 0 mm 0 W/m2
23:00 7.2 °C 5.1 °C 1018.8 hPa Calm     86% 0 mm 0 W/m2
23:09 7 °C 4.9 °C 1018.8 hPa Calm     86.6% 0 mm 0 W/m2
23:14 6.9 °C 4.9 °C 1018.8 hPa Calm     87% 0 mm 0 W/m2
23:19 6.8 °C 4.8 °C 1018.8 hPa Calm     87.1% 0 mm 0 W/m2
23:24 6.8 °C 4.9 °C 1018.8 hPa Calm     88% 0 mm 0 W/m2
23:29 6.7 °C 4.9 °C 1018.8 hPa Calm     88% 0 mm 0 W/m2
23:34 6.7 °C 4.9 °C 1018.8 hPa Calm     88.5% 0 mm 0 W/m2
23:39 6.7 °C 5 °C 1018.8 hPa Calm     89% 0 mm 0 W/m2
23:44 6.7 °C 5 °C 1018.5 hPa Calm     89% 0 mm 0 W/m2
23:49 6.7 °C 5 °C 1018.5 hPa Calm     89% 0 mm 0 W/m2
23:54 6.6 °C 4.9 °C 1018.5 hPa Calm     89% 0 mm 0 W/m2
23:59 6.5 °C 4.8 °C 1018.5 hPa Calm     89% 0 mm 0 W/m2
Hartford County Weather
Compliments of Weather Underground - 4 mb